Time;durP1;ratioP1;P1;durP2;ratioP2;P2;SDS_P1;SDS_P2;PMS_P1;PMS_P2;Temp;Humidity;BMP_temperature;BMP_pressure;BME280_temperature;BME280_humidity;BME280_pressure;Samples;Min_cycle;Max_cycle;Signal;HPM_P1;HPM_P2
2023/06/14 00:02:55;;;;;;;8.32;2.78;;;;;;;9.79;49.14;97586.94;6268445;28;20061;-68
2023/06/14 00:06:00;;;;;;;9.10;3.17;;;;;;;9.79;49.48;97585.16;6287750;28;20060;-67
2023/06/14 00:09:09;;;;;;;5.97;3.33;;;;;;;9.82;49.89;97600.81;6283301;28;20044;-68
2023/06/14 00:12:18;;;;;;;5.00;3.28;;;;;;;9.85;49.86;97605.91;6291902;28;20041;-67
2023/06/14 00:15:19;;;;;;;9.82;3.50;;;;;;;9.80;49.87;97600.03;6290676;28;20055;-65
2023/06/14 00:18:29;;;;;;;7.70;3.05;;;;;;;9.83;50.06;97605.13;6288482;28;20411;-66
2023/06/14 00:21:36;;;;;;;8.75;3.53;;;;;;;9.81;50.26;97601.72;6291465;28;20538;-66
2023/06/14 00:24:43;;;;;;;10.43;3.33;;;;;;;9.71;50.49;97590.00;6292645;28;20551;-67
2023/06/14 00:27:49;;;;;;;9.68;3.80;;;;;;;9.78;50.52;97607.13;6289929;28;20040;-66
2023/06/14 00:30:53;;;;;;;22.20;11.35;;;;;;;9.85;50.39;97600.66;6290099;28;20036;-66
2023/06/14 00:34:01;;;;;;;22.10;11.07;;;;;;;9.97;50.28;97603.59;6284093;28;20041;-66
2023/06/14 00:37:07;;;;;;;33.80;18.52;;;;;;;10.07;49.74;97599.56;6289925;28;20036;-66
2023/06/14 00:40:17;;;;;;;21.08;11.95;;;;;;;10.14;49.21;97598.31;6290844;28;20045;-66
2023/06/14 00:43:23;;;;;;;16.70;7.75;;;;;;;10.19;49.00;97605.97;6293019;28;20040;-66
2023/06/14 00:46:27;;;;;;;15.98;8.45;;;;;;;10.19;48.88;97596.31;6289229;28;20051;-67
2023/06/14 00:49:34;;;;;;;17.00;8.02;;;;;;;10.21;48.96;97594.44;6287403;28;20071;-66
2023/06/14 00:52:40;;;;;;;8.25;4.90;;;;;;;10.30;48.52;97604.53;6291183;28;20040;-66
2023/06/14 00:55:41;;;;;;;9.10;3.53;;;;;;;10.40;48.44;97606.66;6290090;28;20040;-67
2023/06/14 00:58:43;;;;;;;7.35;3.33;;;;;;;10.42;48.74;97603.03;6287010;28;20049;-67
2023/06/14 01:01:49;;;;;;;12.35;3.20;;;;;;;10.45;48.64;97602.88;6287341;28;20044;-68
2023/06/14 01:04:54;;;;;;;9.65;3.25;;;;;;;10.56;48.64;97608.41;6286539;28;20916;-68
2023/06/14 01:08:37;;;;;;;6.78;3.10;;;;;;;10.66;48.75;97600.03;6286715;28;20044;-68
2023/06/14 01:11:54;;;;;;;5.70;2.97;;;;;;;10.68;48.63;97604.28;6267496;28;20037;-67
2023/06/14 01:15:00;;;;;;;5.22;2.67;;;;;;;10.72;48.71;97605.78;6290385;28;20056;-67
2023/06/14 01:18:04;;;;;;;5.25;2.65;;;;;;;10.79;48.78;97606.34;6289419;28;20045;-67
2023/06/14 01:21:24;;;;;;;9.02;3.40;;;;;;;10.95;49.19;97614.22;6289646;28;20040;-67
2023/06/14 01:24:31;;;;;;;7.97;3.25;;;;;;;11.01;48.60;97621.78;6290315;28;20056;-67
2023/06/14 01:27:38;;;;;;;7.65;3.15;;;;;;;11.12;48.09;97623.84;6292657;28;20037;-67
2023/06/14 01:30:48;;;;;;;5.25;3.10;;;;;;;11.21;47.79;97621.56;6290478;28;20037;-68
2023/06/14 01:33:53;;;;;;;9.82;3.40;;;;;;;11.26;47.70;97620.44;6269802;28;20504;-67
2023/06/14 01:37:00;;;;;;;10.32;3.85;;;;;;;11.37;47.82;97620.69;6289005;28;20048;-68
2023/06/14 01:40:06;;;;;;;10.10;3.72;;;;;;;11.48;47.64;97620.94;6291590;28;20420;-68
2023/06/14 01:43:10;;;;;;;11.23;3.30;;;;;;;11.58;47.32;97622.13;6289831;28;20056;-67
2023/06/14 01:46:15;;;;;;;11.82;4.05;;;;;;;11.66;46.93;97622.56;6288750;28;20602;-69
2023/06/14 01:49:23;;;;;;;11.63;4.20;;;;;;;11.80;46.68;97620.88;6292455;28;20504;-67
2023/06/14 01:52:30;;;;;;;10.93;3.78;;;;;;;11.91;46.30;97618.50;6291484;28;20036;-68
2023/06/14 01:55:37;;;;;;;13.40;4.75;;;;;;;12.00;45.98;97632.94;6277040;28;20120;-67
2023/06/14 01:58:41;;;;;;;16.75;4.93;;;;;;;12.11;45.72;97631.38;6290056;28;20041;-67
2023/06/14 02:01:48;;;;;;;16.30;5.25;;;;;;;12.21;45.34;97633.50;6290752;28;20052;-67
2023/06/14 02:04:52;;;;;;;13.27;5.20;;;;;;;12.24;45.19;97641.22;6295649;28;20143;-67
2023/06/14 02:07:57;;;;;;;19.20;5.68;;;;;;;12.25;44.98;97633.19;6295732;28;20044;-68
2023/06/14 02:11:01;;;;;;;13.82;5.53;;;;;;;12.24;44.69;97628.88;6296280;28;20051;-68
2023/06/14 02:14:03;;;;;;;20.92;5.97;;;;;;;12.29;44.69;97633.88;6293239;28;20060;-67
2023/06/14 02:17:07;;;;;;;14.18;5.28;;;;;;;12.37;44.89;97634.28;6295437;28;20036;-67
2023/06/14 02:20:09;;;;;;;16.90;5.97;;;;;;;12.44;44.57;97627.69;6295721;28;20471;-67
2023/06/14 02:23:13;;;;;;;23.73;7.00;;;;;;;12.42;44.31;97621.63;6294735;28;20033;-68
2023/06/14 02:26:14;;;;;;;23.33;6.45;;;;;;;12.55;44.06;97630.50;6293934;28;20053;-68
2023/06/14 02:29:18;;;;;;;15.80;6.50;;;;;;;12.52;43.92;97619.31;6294640;28;20040;-68
2023/06/14 02:32:27;;;;;;;18.67;5.88;;;;;;;12.67;43.69;97617.50;6295134;28;20044;-66
2023/06/14 02:35:34;;;;;;;17.48;6.80;;;;;;;12.72;43.21;97631.28;6293248;28;20037;-68
2023/06/14 02:38:38;;;;;;;15.60;5.57;;;;;;;12.74;43.19;97618.84;6296070;28;20041;-67
2023/06/14 02:41:44;;;;;;;16.95;5.50;;;;;;;12.80;42.94;97623.75;6295179;28;20040;-68
2023/06/14 02:44:51;;;;;;;17.05;5.63;;;;;;;12.81;42.92;97605.16;6293894;28;20061;-67
2023/06/14 02:47:55;;;;;;;18.35;5.97;;;;;;;12.88;43.10;97613.56;6293217;28;20051;-68
2023/06/14 02:51:00;;;;;;;26.25;6.68;;;;;;;12.93;42.63;97608.81;6277155;28;20119;-67
2023/06/14 02:54:04;;;;;;;14.93;6.00;;;;;;;13.02;42.25;97617.94;6292305;28;20048;-67
2023/06/14 02:57:06;;;;;;;16.98;6.20;;;;;;;13.10;41.97;97610.38;6277168;28;20050;-68
2023/06/14 03:00:10;;;;;;;10.93;6.25;;;;;;;13.21;41.71;97607.06;6292608;28;20060;-67
2023/06/14 03:03:16;;;;;;;15.05;6.35;;;;;;;13.30;41.61;97614.44;6288541;28;20049;-67
2023/06/14 03:06:20;;;;;;;13.80;6.32;;;;;;;13.34;41.09;97601.91;6287642;28;20037;-67
2023/06/14 03:09:24;;;;;;;15.70;5.57;;;;;;;13.43;40.55;97606.59;6285075;28;20045;-68
2023/06/14 03:12:28;;;;;;;13.77;5.00;;;;;;;13.51;40.14;97598.16;6287537;28;20040;-67
2023/06/14 03:15:33;;;;;;;13.15;5.68;;;;;;;13.60;40.26;97597.56;6289649;28;20044;-68
2023/06/14 03:18:38;;;;;;;11.63;5.50;;;;;;;13.70;40.31;97601.28;6287748;28;20045;-67
2023/06/14 03:21:45;;;;;;;16.05;6.40;;;;;;;13.81;40.19;97596.13;6286644;28;20049;-67
2023/06/14 03:24:50;;;;;;;14.50;6.18;;;;;;;13.93;40.01;97597.97;6286123;28;20048;-68
2023/06/14 03:27:57;;;;;;;18.70;7.15;;;;;;;14.04;39.82;97585.78;6289827;28;20645;-71
2023/06/14 03:31:03;;;;;;;16.85;6.65;;;;;;;14.13;38.87;97595.78;6271585;28;20047;-68
2023/06/14 03:34:15;;;;;;;15.18;6.57;;;;;;;14.18;38.99;97575.13;6286526;28;20131;-68
2023/06/14 03:37:22;;;;;;;14.32;6.72;;;;;;;14.25;38.79;97573.75;6286826;28;20399;-67
2023/06/14 03:40:29;;;;;;;15.82;6.63;;;;;;;14.29;38.73;97569.94;6287744;28;20048;-69
2023/06/14 03:43:33;;;;;;;12.23;5.60;;;;;;;14.46;38.09;97581.16;6284506;28;20044;-68
2023/06/14 03:46:40;;;;;;;11.02;5.60;;;;;;;14.49;37.70;97562.41;6286226;28;20127;-67
2023/06/14 03:49:44;;;;;;;16.77;6.50;;;;;;;14.65;37.45;97568.38;6287942;28;20139;-67
2023/06/14 03:52:48;;;;;;;20.27;7.22;;;;;;;14.75;37.78;97561.50;6285203;28;20032;-68
2023/06/14 03:55:53;;;;;;;11.82;6.20;;;;;;;14.90;37.78;97558.72;6288996;28;20519;-68
2023/06/14 03:58:57;;;;;;;15.93;5.50;;;;;;;15.00;37.08;97551.78;6287929;28;20048;-68
2023/06/14 04:01:59;;;;;;;10.02;4.93;;;;;;;15.11;36.65;97549.19;6285743;28;20049;-69
2023/06/14 04:05:08;;;;;;;9.30;4.15;;;;;;;15.19;36.14;97538.88;6288151;28;20047;-67
2023/06/14 04:08:10;;;;;;;9.45;3.70;;;;;;;15.33;36.03;97545.00;6269404;28;20048;-68
2023/06/14 04:11:14;;;;;;;9.38;4.55;;;;;;;15.43;35.93;97551.31;6288531;28;20036;-67
2023/06/14 04:14:15;;;;;;;9.15;4.68;;;;;;;15.53;35.79;97536.41;6268540;28;20475;-67
2023/06/14 04:17:19;;;;;;;;;;;;;;;15.66;35.84;97553.09;6288373;28;20047;-68
2023/06/14 04:20:21;;;;;;;9.55;4.05;;;;;;;15.75;35.50;97543.66;6288096;28;19962;-68
2023/06/14 04:23:28;;;;;;;15.70;4.90;;;;;;;15.93;35.31;97555.50;6289791;28;20036;-68
2023/06/14 04:26:33;;;;;;;15.70;4.38;;;;;;;16.06;34.76;97550.13;6286154;28;20059;-67
2023/06/14 04:29:40;;;;;;;10.60;3.85;;;;;;;16.15;34.36;97554.72;6287582;28;20036;-67
2023/06/14 04:32:43;;;;;;;6.25;2.55;;;;;;;16.26;33.88;97551.25;6288567;28;20125;-68
2023/06/14 04:35:47;;;;;;;;;;;;;;;16.43;34.13;97552.59;6287386;28;20040;-67
2023/06/14 04:38:49;;;;;;;13.38;3.17;;;;;;;16.52;33.80;97557.19;6288224;28;20007;-68
2023/06/14 04:41:56;;;;;;;8.23;2.90;;;;;;;16.71;33.58;97555.75;6288580;28;20125;-67
2023/06/14 04:45:03;;;;;;;13.07;2.90;;;;;;;17.42;32.33;97559.78;6287360;28;20052;-67
2023/06/14 04:48:06;;;;;;;4.65;2.72;;;;;;;20.12;28.83;97556.81;6287953;28;20849;-67
2023/06/14 04:51:08;;;;;;;4.57;2.08;;;;;;;23.46;24.83;97552.16;6287645;28;20056;-67
2023/06/14 04:54:14;;;;;;;9.07;2.40;;;;;;;26.42;22.04;97570.84;6287864;28;20064;-68
2023/06/14 04:57:21;;;;;;;4.45;2.00;;;;;;;29.06;19.39;97573.28;6285676;28;20125;-68
2023/06/14 05:00:31;;;;;;;3.95;1.88;;;;;;;31.10;18.01;97583.94;6288935;28;20479;-67
2023/06/14 05:03:36;;;;;;;4.82;1.60;;;;;;;33.19;15.63;97570.50;6287338;28;20519;-69
2023/06/14 05:06:40;;;;;;;4.43;1.88;;;;;;;35.07;14.05;97565.66;6288167;28;20511;-68
2023/06/14 05:09:43;;;;;;;4.47;1.65;;;;;;;36.44;13.36;97571.41;6263345;28;20436;-68
2023/06/14 05:12:49;;;;;;;8.45;1.80;;;;;;;37.61;12.30;97577.84;6289351;28;20060;-69
2023/06/14 05:15:55;;;;;;;5.95;1.75;;;;;;;39.81;10.79;97570.56;6286232;28;20071;-67
2023/06/14 05:19:01;;;;;;;3.85;1.85;;;;;;;42.18;9.21;97573.53;6291137;28;20036;-68
2023/06/14 05:22:09;;;;;;;4.07;1.55;;;;;;;43.44;8.63;97571.88;6292188;28;20042;-68
2023/06/14 05:25:16;;;;;;;6.05;1.58;;;;;;;44.12;8.48;97570.75;6285761;28;20056;-68
2023/06/14 05:28:23;;;;;;;4.35;1.60;;;;;;;44.37;8.37;97567.59;6291786;28;20044;-69
2023/06/14 05:31:28;;;;;;;7.25;2.63;;;;;;;45.76;7.67;97563.09;6284467;28;20075;-69
2023/06/14 05:34:32;;;;;;;3.72;1.35;;;;;;;46.95;6.92;97565.56;6285684;28;20049;-68
2023/06/14 05:37:36;;;;;;;7.43;1.50;;;;;;;47.72;6.44;97560.63;6289855;28;20045;-68
2023/06/14 05:40:42;;;;;;;5.63;1.38;;;;;;;48.66;6.09;97568.59;6291775;28;20503;-69
2023/06/14 05:43:46;;;;;;;3.25;1.27;;;;;;;49.60;5.60;97555.50;6292511;28;20040;-68
2023/06/14 05:46:52;;;;;;;2.97;1.00;;;;;;;48.43;5.59;97545.63;6290810;28;20049;-69
2023/06/14 05:49:56;;;;;;;3.30;0.90;;;;;;;47.98;5.52;97552.31;6294346;28;20059;-68
2023/06/14 05:53:01;;;;;;;1.58;0.88;;;;;;;46.83;6.23;97545.00;6294011;28;20036;-68
2023/06/14 05:56:09;;;;;;;3.30;1.30;;;;;;;46.91;6.15;97530.31;6293360;28;20052;-68
2023/06/14 05:59:14;;;;;;;3.37;0.97;;;;;;;47.95;5.74;97530.66;6287941;28;20581;-69
2023/06/14 06:02:19;;;;;;;2.35;1.00;;;;;;;48.50;5.44;97541.19;6290263;28;20463;-69
2023/06/14 06:05:23;;;;;;;1.27;0.90;;;;;;;48.82;5.38;97536.19;6291758;28;20406;-69
2023/06/14 06:08:28;;;;;;;2.28;1.00;;;;;;;49.82;4.96;97529.16;6294670;28;20040;-69
2023/06/14 06:11:33;;;;;;;2.97;1.00;;;;;;;49.98;5.16;97539.78;6291744;28;20063;-67
2023/06/14 06:14:40;;;;;;;1.58;0.93;;;;;;;48.61;5.35;97522.13;6291509;28;20134;-69
2023/06/14 06:17:51;;;;;;;2.80;1.08;;;;;;;48.68;5.82;97524.41;6293506;28;20033;-68
2023/06/14 06:20:55;;;;;;;2.25;0.85;;;;;;;48.87;5.44;97510.91;6292509;28;20128;-68
2023/06/14 06:24:05;;;;;;;2.80;0.75;;;;;;;50.21;4.95;97515.88;6292228;28;20040;-68
2023/06/14 06:27:10;;;;;;;1.67;0.77;;;;;;;49.66;4.80;97514.16;6281829;28;20044;-68
2023/06/14 06:30:17;;;;;;;1.40;0.77;;;;;;;48.01;6.14;97509.81;6274997;28;20029;-68
2023/06/14 06:33:26;;;;;;;1.50;0.85;;;;;;;48.37;5.28;97493.91;6293925;28;20033;-69
2023/06/14 06:36:31;;;;;;;0.90;0.70;;;;;;;49.28;5.00;97498.22;6286902;28;20496;-69
2023/06/14 06:39:37;;;;;;;1.55;0.90;;;;;;;47.79;5.38;97493.25;6289992;28;20044;-68
2023/06/14 06:42:42;;;;;;;1.35;0.73;;;;;;;46.27;6.09;97472.09;6272693;28;20446;-69
2023/06/14 06:45:45;;;;;;;2.35;0.73;;;;;;;45.80;6.43;97474.31;6292137;28;20190;-67
2023/06/14 06:48:49;;;;;;;1.60;1.10;;;;;;;47.12;5.80;97480.44;6289589;28;20543;-70
2023/06/14 06:52:04;;;;;;;2.10;0.90;;;;;;;48.81;5.28;97483.44;6291059;28;20097;-68
2023/06/14 06:55:06;;;;;;;2.60;0.73;;;;;;;49.81;4.91;97482.78;6288883;28;20563;-68
2023/06/14 06:58:15;;;;;;;1.80;0.90;;;;;;;49.16;4.89;97478.56;6290772;28;20082;-69
2023/06/14 07:01:17;;;;;;;2.45;0.70;;;;;;;48.08;5.57;97481.44;6288643;28;20102;-69
2023/06/14 07:04:20;;;;;;;1.77;0.88;;;;;;;48.48;5.35;97475.66;6287497;28;20090;-67
2023/06/14 07:07:24;;;;;;;1.80;0.75;;;;;;;49.34;5.19;97466.13;6290080;28;20170;-69
2023/06/14 07:10:29;;;;;;;3.25;0.75;;;;;;;51.28;4.60;97474.00;6288545;28;20086;-70
2023/06/14 07:13:35;;;;;;;1.70;0.85;;;;;;;53.18;4.25;97468.19;6285372;28;20043;-68
2023/06/14 07:16:41;;;;;;;1.10;0.70;;;;;;;52.81;3.82;97479.69;6288602;28;20090;-68
2023/06/14 07:19:47;;;;;;;2.65;0.70;;;;;;;51.81;4.33;97471.22;6273503;28;20896;-69
2023/06/14 07:22:51;;;;;;;1.55;0.60;;;;;;;50.48;4.50;97466.03;6291662;28;20066;-68
2023/06/14 07:25:56;;;;;;;2.05;0.70;;;;;;;48.02;5.45;97458.47;6293888;28;20044;-70
2023/06/14 07:29:03;;;;;;;1.88;0.75;;;;;;;47.79;5.72;97460.63;6293522;28;20569;-69
2023/06/14 07:32:06;;;;;;;1.02;0.70;;;;;;;49.12;5.04;97455.22;6274348;28;20041;-69
2023/06/14 07:35:10;;;;;;;2.67;0.82;;;;;;;49.22;4.70;97454.84;6290126;28;20488;-67
2023/06/14 07:38:16;;;;;;;2.10;0.77;;;;;;;48.30;5.13;97455.34;6287587;28;20044;-68
2023/06/14 07:41:19;;;;;;;2.05;0.80;;;;;;;48.75;4.95;97440.91;6290358;28;20101;-67
2023/06/14 07:44:23;;;;;;;0.88;0.73;;;;;;;50.11;4.69;97440.72;6267612;28;20059;-68
2023/06/14 07:47:29;;;;;;;1.55;0.80;;;;;;;51.75;4.24;97439.00;6286631;28;20032;-68
2023/06/14 07:50:35;;;;;;;0.85;0.80;;;;;;;51.96;3.92;97441.63;6291870;28;20047;-67
2023/06/14 07:53:41;;;;;;;0.88;0.50;;;;;;;50.23;4.12;97426.78;6292478;28;20036;-68
2023/06/14 07:56:50;;;;;;;2.45;0.80;;;;;;;48.13;4.88;97426.28;6289714;28;20152;-68
2023/06/14 07:59:55;;;;;;;0.60;0.60;;;;;;;46.72;5.97;97408.84;6286925;28;20041;-67
2023/06/14 08:03:02;;;;;;;1.65;0.85;;;;;;;45.63;6.31;97408.28;6290742;28;20075;-68
2023/06/14 08:06:08;;;;;;;1.08;0.85;;;;;;;43.96;6.94;97395.44;6288711;28;20048;-68
2023/06/14 08:09:14;;;;;;;3.53;1.23;;;;;;;44.18;7.25;97392.03;6291684;28;20045;-69
2023/06/14 08:12:19;;;;;;;2.13;0.95;;;;;;;45.12;6.86;97392.72;6285524;28;20041;-68
2023/06/14 08:15:25;;;;;;;1.95;1.00;;;;;;;44.22;7.48;97381.13;6287209;28;20036;-68
2023/06/14 08:18:30;;;;;;;1.33;0.95;;;;;;;43.55;7.68;97390.56;6287600;28;20135;-69
2023/06/14 08:21:36;;;;;;;1.52;0.82;;;;;;;43.10;8.46;97378.94;6286547;28;20533;-67
2023/06/14 08:24:42;;;;;;;2.08;1.00;;;;;;;42.75;8.33;97371.94;6286284;28;20427;-68
2023/06/14 08:27:49;;;;;;;1.55;0.88;;;;;;;42.11;8.54;97368.44;6270638;28;20044;-67
2023/06/14 08:30:54;;;;;;;2.05;0.68;;;;;;;41.26;8.84;97364.09;6286251;28;20044;-66
2023/06/14 08:33:59;;;;;;;0.90;0.60;;;;;;;40.47;9.00;97365.78;6270990;28;20044;-69
2023/06/14 08:37:04;;;;;;;1.60;1.00;;;;;;;40.59;9.18;97353.31;6268551;28;20499;-68
2023/06/14 08:40:23;;;;;;;2.85;0.95;;;;;;;40.72;9.28;97360.19;6283104;28;20037;-74
2023/06/14 08:43:29;;;;;;;1.58;0.88;;;;;;;39.86;9.49;97347.38;6265771;28;20557;-69
2023/06/14 08:46:37;;;;;;;1.77;1.27;;;;;;;40.17;9.36;97351.75;6288185;28;20047;-72
2023/06/14 08:49:44;;;;;;;1.30;0.82;;;;;;;41.66;9.08;97340.06;6277662;28;20094;-73
2023/06/14 08:52:54;;;;;;;1.30;0.80;;;;;;;42.47;8.36;97343.22;6289435;28;20440;-72
2023/06/14 08:56:04;;;;;;;2.60;1.13;;;;;;;43.19;7.97;97343.13;6292058;28;20036;-72
2023/06/14 08:59:11;;;;;;;1.38;0.70;;;;;;;42.82;7.87;97337.25;6291822;28;20040;-73
2023/06/14 09:02:22;;;;;;;2.55;0.93;;;;;;;42.01;8.14;97333.41;6289091;28;20037;-72
2023/06/14 09:05:28;;;;;;;1.80;0.87;;;;;;;40.81;8.64;97322.63;6267154;28;20373;-73
2023/06/14 09:08:34;;;;;;;2.95;1.58;;;;;;;40.72;9.38;97327.09;6281269;28;20136;-72
2023/06/14 09:11:41;;;;;;;1.52;1.02;;;;;;;41.34;8.67;97333.09;6279875;28;20040;-72
2023/06/14 09:14:46;;;;;;;3.08;1.17;;;;;;;40.39;9.02;97350.63;6269730;28;20044;-73
2023/06/14 09:17:53;;;;;;;1.08;0.82;;;;;;;38.89;9.55;97339.78;6285797;28;20036;-72
2023/06/14 09:20:58;;;;;;;2.33;1.10;;;;;;;38.25;10.00;97329.81;6284155;28;20044;-73
2023/06/14 09:24:04;;;;;;;0.90;0.77;;;;;;;38.83;9.61;97321.56;6283240;28;20049;-73
2023/06/14 09:27:14;;;;;;;3.05;0.80;;;;;;;38.40;10.14;97310.69;6283968;28;20041;-73
2023/06/14 09:30:21;;;;;;;1.40;0.90;;;;;;;38.08;10.58;97310.78;6267763;28;20044;-73
2023/06/14 09:33:27;;;;;;;2.85;0.88;;;;;;;37.97;10.40;97309.88;6283307;28;20033;-75
2023/06/14 09:36:33;;;;;;;1.10;0.85;;;;;;;37.28;10.65;97316.16;6282797;28;20049;-73
2023/06/14 09:39:49;;;;;;;1.75;0.90;;;;;;;36.38;11.18;97301.09;6253769;28;20044;-73
2023/06/14 09:42:57;;;;;;;1.75;1.00;;;;;;;36.92;11.45;97306.69;6269599;28;20044;-74
2023/06/14 09:46:03;;;;;;;2.08;1.23;;;;;;;37.62;10.98;97298.59;6263903;28;20100;-72
2023/06/14 09:49:08;;;;;;;2.40;1.23;;;;;;;37.56;10.90;97288.66;6277514;28;20385;-72
2023/06/14 09:52:17;;;;;;;2.10;1.00;;;;;;;36.57;10.94;97288.75;6267953;28;20037;-72
2023/06/14 09:55:27;;;;;;;3.05;1.30;;;;;;;36.35;11.28;97271.44;6283974;28;20056;-71
2023/06/14 09:58:32;;;;;;;2.20;1.20;;;;;;;36.35;11.22;97279.66;6281284;28;20036;-72
2023/06/14 10:01:42;;;;;;;1.30;1.00;;;;;;;35.65;11.48;97265.53;6279596;28;20060;-70
2023/06/14 10:04:53;;;;;;;2.85;1.20;;;;;;;35.18;12.55;97274.03;6281304;28;20403;-72
2023/06/14 10:08:10;;;;;;;1.92;1.17;;;;;;;35.64;12.03;97266.63;6274444;28;20035;-74
2023/06/14 10:11:15;;;;;;;1.23;1.13;;;;;;;36.04;11.32;97268.28;6287590;28;20041;-72
2023/06/14 10:14:22;;;;;;;3.60;1.00;;;;;;;36.13;11.53;97260.50;6291305;28;20565;-74
2023/06/14 10:17:43;;;;;;;1.33;0.93;;;;;;;36.14;11.59;97262.97;6280703;28;20087;-73
2023/06/14 10:21:08;;;;;;;1.50;1.05;;;;;;;35.69;12.43;97261.22;6293700;28;20044;-72
2023/06/14 10:24:19;;;;;;;2.60;1.40;;;;;;;35.17;12.22;97264.19;6276370;28;20048;-72
2023/06/14 10:27:25;;;;;;;1.20;1.10;;;;;;;34.46;12.94;97249.16;6294022;28;20051;-73
2023/06/14 10:30:30;;;;;;;1.38;1.00;;;;;;;34.19;13.30;97252.41;6291992;28;20045;-73
2023/06/14 10:33:57;;;;;;;1.95;1.17;;;;;;;34.86;13.08;97246.38;6290296;28;20052;-72
2023/06/14 10:37:07;;;;;;;3.38;1.35;;;;;;;35.04;13.35;97239.84;6264888;28;20048;-73
2023/06/14 10:40:31;;;;;;;1.77;1.30;;;;;;;35.59;13.19;97235.63;6288103;28;20040;-72
2023/06/14 10:43:36;;;;;;;2.28;1.17;;;;;;;34.57;13.19;97226.44;6294804;28;20463;-73
2023/06/14 10:47:02;;;;;;;3.58;1.60;;;;;;;33.32;14.50;97231.31;6294427;28;20131;-73
2023/06/14 10:50:05;;;;;;;4.90;1.25;;;;;;;32.97;14.60;97228.50;6275853;28;20260;-72
2023/06/14 10:53:24;;;;;;;5.40;1.33;;;;;;;32.77;14.40;97217.91;6283181;28;20037;-72
2023/06/14 10:56:32;;;;;;;2.47;1.58;;;;;;;32.45;14.94;97206.41;6289288;28;20041;-74
2023/06/14 10:59:38;;;;;;;1.67;1.30;;;;;;;32.27;14.86;97212.69;6289099;28;20090;-71
2023/06/14 11:03:10;;;;;;;1.92;1.33;;;;;;;32.24;15.32;97196.81;6283512;28;20045;-72
2023/06/14 11:06:21;;;;;;;1.95;1.00;;;;;;;32.35;15.27;97204.19;6260526;28;20708;-70
2023/06/14 11:10:08;;;;;;;2.47;1.27;;;;;;;31.77;15.37;97200.91;6279110;28;20040;-71
2023/06/14 11:13:13;;;;;;;2.13;1.17;;;;;;;31.38;15.78;97199.44;6265257;28;20044;-71
2023/06/14 11:16:19;;;;;;;15.93;9.55;;;;;;;30.39;16.54;97188.19;6277709;28;20040;-67
2023/06/14 11:19:25;;;;;;;4.53;2.20;;;;;;;30.65;16.61;97191.78;6277855;28;20036;-69
2023/06/14 11:22:29;;;;;;;3.25;1.15;;;;;;;30.75;16.58;97178.56;6281076;28;20132;-74
2023/06/14 11:25:34;;;;;;;1.75;1.10;;;;;;;30.20;16.59;97167.38;6275949;28;20615;-71
2023/06/14 11:28:40;;;;;;;3.03;1.50;;;;;;;29.91;17.12;97155.22;6260886;28;20048;-70
2023/06/14 11:31:47;;;;;;;2.03;1.50;;;;;;;29.56;17.64;97165.56;6264029;28;20439;-69
2023/06/14 11:34:52;;;;;;;4.07;1.50;;;;;;;29.76;17.44;97167.19;6277267;28;21037;-70
2023/06/14 11:38:02;;;;;;;4.53;2.78;;;;;;;29.98;17.16;97156.03;6282890;28;20106;-70
2023/06/14 11:41:08;;;;;;;5.45;4.05;;;;;;;30.09;17.23;97151.78;6278905;28;20423;-73
2023/06/14 11:44:13;;;;;;;4.22;1.80;;;;;;;30.28;17.14;97145.47;6278153;28;20049;-67
2023/06/14 11:47:17;;;;;;;2.63;1.50;;;;;;;29.94;17.40;97139.34;6279100;28;20047;-67
2023/06/14 11:50:21;;;;;;;2.20;1.20;;;;;;;28.73;18.24;97122.66;6277872;28;20072;-69
2023/06/14 11:53:27;;;;;;;1.98;1.20;;;;;;;28.12;18.77;97129.88;6277655;28;20048;-68
2023/06/14 11:56:32;;;;;;;1.42;1.13;;;;;;;27.83;18.96;97143.69;6260132;28;20527;-69
2023/06/14 11:59:40;;;;;;;1.95;1.20;;;;;;;27.78;19.15;97128.06;6292417;28;20131;-69
2023/06/14 12:02:55;;;;;;;2.80;1.60;;;;;;;27.80;19.58;97130.56;6276051;28;20040;-69
2023/06/14 12:06:09;;;;;;;2.75;1.38;;;;;;;27.85;19.57;97122.69;6292936;28;20154;-70
2023/06/14 12:09:14;;;;;;;4.90;1.20;;;;;;;27.76;19.37;97114.72;6288565;28;20088;-69
2023/06/14 12:12:21;;;;;;;3.03;1.30;;;;;;;28.01;19.15;97116.09;6291600;28;20594;-69
2023/06/14 12:15:22;;;;;;;2.55;1.50;;;;;;;28.16;18.88;97109.47;6291352;28;20044;-70
2023/06/14 12:18:40;;;;;;;2.40;1.30;;;;;;;28.34;19.16;97127.00;6292603;28;20045;-69
2023/06/14 12:21:50;;;;;;;2.50;1.38;;;;;;;28.00;18.88;97109.88;6290897;28;20397;-69
2023/06/14 12:24:52;;;;;;;6.30;3.78;;;;;;;27.63;19.57;97121.94;6283683;28;20542;-69
2023/06/14 12:28:04;;;;;;;2.63;2.00;;;;;;;27.83;19.18;97125.63;6281411;28;20048;-70
2023/06/14 12:31:06;;;;;;;2.00;1.23;;;;;;;28.08;18.92;97106.97;6281418;28;20858;-70
2023/06/14 12:34:07;;;;;;;1.75;1.20;;;;;;;28.28;18.73;97100.75;6288001;28;20032;-69
2023/06/14 12:37:11;;;;;;;2.15;1.60;;;;;;;28.04;19.05;97100.28;6284858;28;20528;-70
2023/06/14 12:40:16;;;;;;;4.88;2.33;;;;;;;27.68;19.56;97095.97;6287741;28;20087;-69
2023/06/14 12:43:22;;;;;;;3.08;1.45;;;;;;;27.67;19.67;97093.50;6272954;28;20040;-69
2023/06/14 12:46:26;;;;;;;3.95;1.80;;;;;;;27.62;19.38;97088.69;6288325;28;20052;-70
2023/06/14 12:49:32;;;;;;;3.05;1.85;;;;;;;27.23;19.79;97087.47;6283986;28;20463;-70
2023/06/14 12:52:44;;;;;;;2.15;1.20;;;;;;;27.03;20.18;97081.06;6290267;28;20045;-69
2023/06/14 12:55:56;;;;;;;2.38;1.70;;;;;;;26.93;20.13;97092.25;6272969;28;20500;-69
2023/06/14 12:59:01;;;;;;;2.83;1.92;;;;;;;26.47;20.38;97081.91;6290326;28;20549;-70
2023/06/14 13:02:16;;;;;;;2.67;1.30;;;;;;;26.25;21.01;97078.38;6291572;28;20511;-69
2023/06/14 13:05:21;;;;;;;2.88;1.48;;;;;;;25.89;21.42;97073.03;6289611;28;20067;-69
2023/06/14 13:08:26;;;;;;;2.92;1.52;;;;;;;25.84;21.65;97070.91;6286111;28;20423;-69
2023/06/14 13:11:27;;;;;;;3.03;1.63;;;;;;;26.00;21.27;97066.31;6288912;28;20052;-69
2023/06/14 13:14:28;;;;;;;2.80;1.50;;;;;;;26.12;21.21;97068.28;6290036;28;20447;-70
2023/06/14 13:17:32;;;;;;;3.10;1.50;;;;;;;26.03;21.21;97066.75;6286819;28;20049;-70
2023/06/14 13:20:39;;;;;;;1.60;1.02;;;;;;;25.90;21.38;97069.31;6290225;28;20064;-70
2023/06/14 13:23:43;;;;;;;2.17;1.40;;;;;;;25.85;21.29;97069.91;6282259;28;20036;-67
2023/06/14 13:26:47;;;;;;;1.70;1.38;;;;;;;25.86;21.56;97066.16;6281559;28;20104;-68
2023/06/14 13:29:52;;;;;;;3.97;1.33;;;;;;;25.46;21.36;97057.59;6283044;28;20428;-70
2023/06/14 13:32:53;;;;;;;1.60;1.13;;;;;;;25.41;21.46;97059.19;6288824;28;20079;-75
2023/06/14 13:35:59;;;;;;;2.75;1.42;;;;;;;25.32;21.99;97055.75;6273863;28;20048;-69
2023/06/14 13:39:03;;;;;;;4.13;1.40;;;;;;;25.28;21.71;97059.88;6284830;28;20044;-68
2023/06/14 13:42:05;;;;;;;2.05;1.30;;;;;;;25.21;21.65;97053.56;6283553;28;20036;-64
2023/06/14 13:45:11;;;;;;;1.70;1.45;;;;;;;25.07;22.21;97066.78;6285298;28;20061;-64
2023/06/14 13:48:13;;;;;;;4.38;2.17;;;;;;;24.86;22.38;97056.78;6286022;28;20633;-64
2023/06/14 13:51:17;;;;;;;5.90;1.83;;;;;;;24.59;22.59;97050.16;6282785;28;20090;-65
2023/06/14 13:54:22;;;;;;;2.00;1.52;;;;;;;24.19;23.15;97044.09;6285445;28;20032;-64
2023/06/14 13:57:29;;;;;;;2.58;1.58;;;;;;;24.41;22.87;97036.19;6286851;28;20033;-64
2023/06/14 14:00:33;;;;;;;5.40;1.88;;;;;;;24.61;22.34;97034.66;6286431;28;20048;-64
2023/06/14 14:03:36;;;;;;;5.07;2.38;;;;;;;24.54;22.67;97030.19;6288310;28;20131;-64
2023/06/14 14:06:39;;;;;;;3.53;1.60;;;;;;;24.46;22.93;97028.44;6287669;28;20499;-65
2023/06/14 14:09:42;;;;;;;5.32;2.25;;;;;;;24.06;23.25;97021.53;6288192;28;20044;-64
2023/06/14 14:12:45;;;;;;;2.60;1.73;;;;;;;23.92;23.67;97025.84;6285915;28;20059;-64
2023/06/14 14:15:53;;;;;;;3.20;1.85;;;;;;;23.66;23.79;97015.41;6290040;28;20052;-64
2023/06/14 14:18:55;;;;;;;3.08;1.58;;;;;;;23.66;23.56;97008.19;6289726;28;20052;-65
2023/06/14 14:21:56;;;;;;;4.20;1.60;;;;;;;23.63;23.73;97010.41;6288412;28;20051;-64
2023/06/14 14:25:00;;;;;;;3.38;1.75;;;;;;;23.60;23.65;97008.06;6286527;28;20033;-64
2023/06/14 14:28:04;;;;;;;2.47;1.58;;;;;;;23.61;23.38;97005.22;6288648;28;20043;-63
2023/06/14 14:31:08;;;;;;;1.92;1.70;;;;;;;23.68;23.28;96995.41;6288783;28;20033;-64
2023/06/14 14:34:12;;;;;;;8.60;3.92;;;;;;;23.83;23.56;97000.03;6290656;28;20040;-64
2023/06/14 14:37:16;;;;;;;3.92;2.67;;;;;;;23.94;23.35;96997.75;6286944;28;20048;-64
2023/06/14 14:40:18;;;;;;;5.68;2.33;;;;;;;23.96;23.71;96997.59;6272600;28;20075;-64